createdAt,value
2018-03-22T00:00:32.693Z,6.57
2018-03-22T00:03:00.852Z,6.07
2018-03-22T00:05:29.051Z,5.85
2018-03-22T00:07:57.722Z,4.20
2018-03-22T00:10:25.877Z,2.92
2018-03-22T00:12:54.211Z,3.12
2018-03-22T00:15:22.365Z,4.20
2018-03-22T00:17:50.528Z,5.05
2018-03-22T00:20:20.000Z,5.18
2018-03-22T00:22:48.594Z,5.05
2018-03-22T00:25:16.800Z,5.22
2018-03-22T00:27:44.985Z,3.75
2018-03-22T00:30:13.879Z,3.75
2018-03-22T00:32:44.106Z,4.32
2018-03-22T00:35:12.288Z,4.93
2018-03-22T00:37:40.466Z,4.75
2018-03-22T00:40:08.613Z,4.12
2018-03-22T00:42:38.976Z,3.60
2018-03-22T00:45:07.134Z,3.92
2018-03-22T00:47:39.356Z,3.62
2018-03-22T00:50:08.262Z,2.50
2018-03-22T00:52:44.181Z,2.70
2018-03-22T00:55:12.495Z,2.17
2018-03-22T00:57:40.673Z,3.03
2018-03-22T01:00:09.609Z,3.12
2018-03-22T01:02:42.091Z,2.37
2018-03-22T01:05:11.736Z,3.15
2018-03-22T01:07:39.906Z,2.42
2018-03-22T01:10:08.064Z,4.25
2018-03-22T01:12:36.570Z,4.75
2018-03-22T01:15:05.325Z,3.20
2018-03-22T01:17:34.260Z,2.78
2018-03-22T01:20:03.206Z,2.83
2018-03-22T01:22:31.536Z,3.50
2018-03-22T01:24:59.712Z,3.15
2018-03-22T01:27:27.900Z,3.20
2018-03-22T01:29:56.071Z,4.15
2018-03-22T01:32:32.058Z,3.17
2018-03-22T01:35:01.436Z,3.25
2018-03-22T01:37:29.594Z,4.40
2018-03-22T01:39:57.801Z,3.50
2018-03-22T01:42:32.976Z,4.20
2018-03-22T01:45:01.167Z,3.67
2018-03-22T01:47:39.570Z,3.75
2018-03-22T01:50:07.747Z,4.07
2018-03-22T01:52:52.298Z,2.95
2018-03-22T01:55:20.473Z,3.28
2018-03-22T01:57:48.644Z,4.47
2018-03-22T02:00:16.832Z,3.60
2018-03-22T02:02:45.101Z,4.03
2018-03-22T02:05:13.979Z,4.22
2018-03-22T02:07:42.158Z,4.53
2018-03-22T02:10:10.575Z,3.10
2018-03-22T02:12:39.501Z,3.00
2018-03-22T02:15:08.441Z,3.20
2018-03-22T02:17:36.616Z,2.90
2018-03-22T02:20:04.791Z,3.30
2018-03-22T02:22:32.961Z,4.07
2018-03-22T02:25:01.142Z,4.10
2018-03-22T02:27:29.309Z,2.80
2018-03-22T02:29:57.460Z,3.10
2018-03-22T02:32:25.636Z,4.20
2018-03-22T02:34:54.035Z,3.33
2018-03-22T02:37:23.010Z,3.62
2018-03-22T02:39:51.156Z,3.67
2018-03-22T02:42:19.353Z,3.47
2018-03-22T02:44:47.505Z,3.83
2018-03-22T02:47:15.925Z,2.85
2018-03-22T02:49:44.807Z,2.55
2018-03-22T02:52:16.348Z,2.80
2018-03-22T02:54:45.565Z,3.42
2018-03-22T02:57:14.410Z,2.70
2018-03-22T02:59:42.588Z,3.22
2018-03-22T03:02:11.017Z,3.50
2018-03-22T03:04:40.123Z,3.30
2018-03-22T03:07:08.294Z,2.70
2018-03-22T03:09:36.515Z,3.12
2018-03-22T03:12:04.677Z,3.10
2018-03-22T03:14:32.829Z,3.70
2018-03-22T03:17:00.998Z,3.25
2018-03-22T03:19:29.432Z,4.80
2018-03-22T03:21:58.358Z,3.58
2018-03-22T03:24:26.532Z,2.78
2018-03-22T03:26:56.492Z,4.15
2018-03-22T03:29:24.657Z,3.60
2018-03-22T03:31:52.848Z,5.37
2018-03-22T03:34:21.019Z,3.92
2018-03-22T03:36:49.222Z,4.25
2018-03-22T03:39:17.387Z,3.78
2018-03-22T03:41:46.384Z,3.85
2018-03-22T03:44:14.534Z,3.58
2018-03-22T03:46:43.530Z,3.87
2018-03-22T03:49:11.698Z,3.83
2018-03-22T03:51:39.878Z,3.70
2018-03-22T03:54:09.646Z,3.97
2018-03-22T03:56:37.809Z,4.10
2018-03-22T03:59:05.971Z,4.12
2018-03-22T04:01:34.822Z,3.90
2018-03-22T04:04:03.012Z,3.42
2018-03-22T04:06:31.924Z,4.35
2018-03-22T04:09:00.337Z,3.28
2018-03-22T04:11:28.546Z,4.22
2018-03-22T04:13:56.699Z,4.70
2018-03-22T04:16:24.848Z,3.80
2018-03-22T04:18:53.056Z,3.95
2018-03-22T04:21:21.233Z,4.50
2018-03-22T04:23:51.407Z,5.62
2018-03-22T04:26:20.361Z,4.45
2018-03-22T04:28:49.305Z,5.30
2018-03-22T04:31:17.622Z,4.37
2018-03-22T04:33:45.970Z,5.45
2018-03-22T04:36:14.122Z,7.75
2018-03-22T04:38:42.296Z,6.05
2018-03-22T04:41:10.464Z,4.78
2018-03-22T04:43:38.611Z,5.03
2018-03-22T04:46:07.437Z,4.22
2018-03-22T04:48:35.624Z,5.35
2018-03-22T04:51:03.798Z,4.97
2018-03-22T04:53:32.521Z,3.85
2018-03-22T04:56:00.673Z,5.75
2018-03-22T04:58:28.841Z,4.82
2018-03-22T05:00:57.230Z,4.87
2018-03-22T05:03:29.353Z,3.72
2018-03-22T05:05:57.631Z,4.40
2018-03-22T05:08:25.852Z,3.33
2018-03-22T05:10:54.022Z,5.30
2018-03-22T05:13:24.357Z,6.40
2018-03-22T05:15:52.523Z,8.88
2018-03-22T05:18:20.744Z,9.10
2018-03-22T05:20:48.919Z,10.90
2018-03-22T05:23:17.187Z,9.05
2018-03-22T05:25:45.373Z,8.63
2018-03-22T05:28:14.442Z,8.48
2018-03-22T05:30:43.371Z,7.93
2018-03-22T05:33:11.566Z,6.87
2018-03-22T05:35:40.690Z,8.02
2018-03-22T05:38:09.192Z,7.50
2018-03-22T05:40:37.381Z,6.95
2018-03-22T05:43:05.682Z,7.40
2018-03-22T05:45:33.862Z,7.25
2018-03-22T05:48:02.019Z,8.63
2018-03-22T05:50:30.194Z,7.37
2018-03-22T05:53:00.489Z,8.55
2018-03-22T05:55:29.428Z,8.52
2018-03-22T05:58:00.648Z,8.63
2018-03-22T06:00:29.226Z,7.80
2018-03-22T06:02:57.432Z,9.63
2018-03-22T06:05:25.585Z,7.70
2018-03-22T06:07:54.603Z,8.68
2018-03-22T06:10:22.821Z,7.37
2018-03-22T06:12:51.121Z,8.45
2018-03-22T06:15:19.680Z,6.80
2018-03-22T06:17:47.864Z,6.97
2018-03-22T06:20:16.784Z,8.38
2018-03-22T06:22:46.888Z,7.97
2018-03-22T06:25:16.007Z,6.57
2018-03-22T06:27:44.198Z,6.28
2018-03-22T06:30:12.362Z,6.87
2018-03-22T06:32:40.623Z,7.43
2018-03-22T06:35:08.804Z,7.12
2018-03-22T06:37:36.986Z,5.90
2018-03-22T06:40:05.392Z,7.70
2018-03-22T06:42:33.593Z,6.07
2018-03-22T06:45:02.527Z,7.15
2018-03-22T06:47:30.705Z,5.47
2018-03-22T06:49:58.895Z,5.20
2018-03-22T06:52:31.428Z,5.65
2018-03-22T06:54:59.579Z,5.97
2018-03-22T06:57:28.531Z,5.60
2018-03-22T06:59:56.687Z,7.03
2018-03-22T07:02:24.864Z,6.55
2018-03-22T07:04:53.056Z,5.00
2018-03-22T07:07:21.269Z,5.82
2018-03-22T07:09:50.139Z,6.97
2018-03-22T07:12:18.401Z,5.28
2018-03-22T07:14:46.555Z,5.37
2018-03-22T07:17:15.350Z,5.72
2018-03-22T07:19:43.531Z,6.70
2018-03-22T07:22:11.720Z,4.57
2018-03-22T07:24:39.903Z,6.18
2018-03-22T07:27:08.077Z,5.80
2018-03-22T07:29:36.267Z,5.47
2018-03-22T07:32:04.437Z,6.32
2018-03-22T07:34:32.626Z,5.32
2018-03-22T07:37:00.829Z,5.45
2018-03-22T07:39:29.737Z,5.22
2018-03-22T07:41:57.940Z,5.10
2018-03-22T07:44:31.822Z,6.78
2018-03-22T07:47:00.011Z,5.45
2018-03-22T07:49:28.184Z,6.85
2018-03-22T07:51:56.384Z,6.62
2018-03-22T07:54:24.539Z,5.85
2018-03-22T07:56:52.745Z,4.82
2018-03-22T07:59:20.924Z,5.85
2018-03-22T08:01:49.094Z,5.37
2018-03-22T08:04:18.103Z,5.70
2018-03-22T08:06:47.058Z,4.78
2018-03-22T08:09:15.223Z,5.20
2018-03-22T08:11:43.997Z,4.65
2018-03-22T08:14:12.177Z,5.75
2018-03-22T08:16:40.391Z,5.03
2018-03-22T08:19:09.327Z,5.37
2018-03-22T08:21:41.026Z,5.50
2018-03-22T08:24:09.921Z,4.57
2018-03-22T08:26:38.089Z,4.20
2018-03-22T08:29:06.565Z,5.00
2018-03-22T08:31:35.086Z,3.80
2018-03-22T08:34:03.370Z,5.90
2018-03-22T08:36:31.556Z,5.37
2018-03-22T08:38:59.710Z,5.50
2018-03-22T08:41:28.781Z,4.95
2018-03-22T08:43:57.114Z,5.80
2018-03-22T08:46:25.506Z,4.32
2018-03-22T08:48:56.326Z,4.50
2018-03-22T08:51:24.499Z,4.40
2018-03-22T08:53:53.480Z,5.15
2018-03-22T08:56:21.657Z,5.00
2018-03-22T08:58:50.357Z,4.78
2018-03-22T09:01:19.371Z,5.82
2018-03-22T09:03:47.994Z,4.37
2018-03-22T09:06:16.364Z,4.37
2018-03-22T09:08:45.555Z,4.15
2018-03-22T09:11:14.883Z,3.37
2018-03-22T09:13:44.176Z,5.00
2018-03-22T09:16:13.256Z,4.53
2018-03-22T09:18:41.397Z,4.15
2018-03-22T09:21:09.554Z,4.75
2018-03-22T09:23:37.725Z,5.07
2018-03-22T09:26:05.907Z,4.90
2018-03-22T09:28:34.077Z,4.45
2018-03-22T09:31:03.765Z,5.10
2018-03-22T09:33:34.442Z,4.82
2018-03-22T09:36:03.172Z,5.57
2018-03-22T09:38:31.405Z,3.87
2018-03-22T09:41:00.414Z,3.75
2018-03-22T09:43:29.690Z,4.15
2018-03-22T09:45:58.608Z,5.15
2018-03-22T09:48:27.059Z,4.03
2018-03-22T09:50:55.354Z,4.40
2018-03-22T09:53:26.902Z,4.87
2018-03-22T09:55:55.104Z,5.18
2018-03-22T09:58:23.554Z,4.30
2018-03-22T10:00:51.759Z,5.35
2018-03-22T10:03:20.785Z,3.95
2018-03-22T10:05:48.986Z,4.62
2018-03-22T10:08:17.138Z,5.07
2018-03-22T10:10:46.102Z,4.85
2018-03-22T10:13:15.466Z,4.57
2018-03-22T10:15:43.656Z,5.18
2018-03-22T10:18:12.198Z,4.53
2018-03-22T10:20:40.409Z,4.15
2018-03-22T10:23:09.678Z,4.72
2018-03-22T10:25:38.275Z,5.53
2018-03-22T10:28:06.912Z,4.60
2018-03-22T10:30:35.104Z,4.50
2018-03-22T10:33:04.425Z,4.28
2018-03-22T10:35:32.625Z,5.00
2018-03-22T10:38:01.785Z,5.12
2018-03-22T10:40:31.230Z,6.40
2018-03-22T10:42:59.391Z,5.53
2018-03-22T10:45:27.760Z,5.25
2018-03-22T10:47:56.241Z,4.55
2018-03-22T10:50:26.368Z,7.30
2018-03-22T10:52:56.678Z,5.00
2018-03-22T10:55:31.597Z,5.00
2018-03-22T10:58:03.710Z,5.37
2018-03-22T11:00:37.768Z,3.60
2018-03-22T11:03:25.640Z,5.05
2018-03-22T11:05:54.585Z,5.10
2018-03-22T11:08:22.768Z,5.75
2018-03-22T11:10:50.938Z,3.58
2018-03-22T11:13:19.204Z,4.30
2018-03-22T11:15:48.239Z,6.07
2018-03-22T11:18:16.605Z,6.95
2018-03-22T11:20:44.778Z,7.10
2018-03-22T11:23:12.964Z,14.82
2018-03-22T11:25:41.162Z,8.30
2018-03-22T11:28:09.337Z,6.97
2018-03-22T11:30:37.523Z,5.62
2018-03-22T11:33:07.136Z,8.05
2018-03-22T11:35:35.356Z,6.55
2018-03-22T11:38:03.521Z,6.75
2018-03-22T11:40:31.697Z,7.97
2018-03-22T11:43:00.024Z,6.82
2018-03-22T11:45:28.222Z,7.47
2018-03-22T11:47:57.224Z,4.65
2018-03-22T11:50:26.483Z,6.70
2018-03-22T11:52:54.725Z,7.30
2018-03-22T11:55:22.896Z,9.07
2018-03-22T11:57:51.166Z,5.80
2018-03-22T12:00:19.341Z,6.78
2018-03-22T12:02:55.158Z,5.45
2018-03-22T12:05:23.538Z,6.05
2018-03-22T12:07:51.744Z,5.78
2018-03-22T12:10:20.416Z,7.03
2018-03-22T12:12:48.719Z,6.18
2018-03-22T12:15:19.155Z,5.70
2018-03-22T12:17:48.436Z,8.57
2018-03-22T12:20:16.606Z,6.60
2018-03-22T12:22:45.906Z,7.10
2018-03-22T12:25:14.136Z,7.72
2018-03-22T12:27:42.313Z,7.35
2018-03-22T12:30:10.520Z,7.32
2018-03-22T12:32:39.859Z,5.18
2018-03-22T12:35:09.026Z,10.18
2018-03-22T12:37:37.359Z,8.52
2018-03-22T12:40:06.007Z,10.75
2018-03-22T12:42:38.109Z,10.00
2018-03-22T12:45:07.097Z,6.87
2018-03-22T12:47:35.514Z,11.85
2018-03-22T12:50:04.486Z,9.35
2018-03-22T12:52:33.781Z,11.63
2018-03-22T12:55:02.696Z,7.65
2018-03-22T12:57:30.881Z,10.40
2018-03-22T12:59:59.123Z,10.90
2018-03-22T13:02:31.081Z,9.05
2018-03-22T13:04:59.320Z,12.80
2018-03-22T13:07:27.531Z,11.80
2018-03-22T13:09:56.647Z,9.45
2018-03-22T13:12:25.605Z,13.10
2018-03-22T13:14:54.290Z,11.93
2018-03-22T13:17:25.414Z,12.10
2018-03-22T13:19:53.649Z,11.77
2018-03-22T13:22:21.992Z,12.95
2018-03-22T13:24:53.436Z,13.95
2018-03-22T13:27:21.614Z,11.93
2018-03-22T13:32:33.288Z,13.15
2018-03-22T13:35:09.822Z,12.00
2018-03-22T13:37:38.738Z,12.52
2018-03-22T13:40:06.922Z,11.68
2018-03-22T13:42:35.234Z,11.98
2018-03-22T13:45:04.605Z,15.65
2018-03-22T13:47:32.785Z,13.20
2018-03-22T13:50:00.952Z,12.50
2018-03-22T13:52:29.284Z,13.35
2018-03-22T13:54:57.957Z,10.05
2018-03-22T13:57:26.118Z,11.30
2018-03-22T13:59:54.298Z,11.85
2018-03-22T14:02:25.759Z,12.65
2018-03-22T14:04:54.630Z,10.13
2018-03-22T14:07:22.813Z,11.80
2018-03-22T14:09:50.987Z,9.57
2018-03-22T14:12:20.190Z,11.88
2018-03-22T14:14:51.414Z,10.55
2018-03-22T14:17:21.379Z,11.18
2018-03-22T14:19:51.280Z,10.65
2018-03-22T14:22:22.666Z,13.27
2018-03-22T14:24:50.849Z,13.27
2018-03-22T14:27:19.900Z,11.12
2018-03-22T14:29:49.199Z,11.12
2018-03-22T14:32:19.809Z,10.80
2018-03-22T14:34:48.036Z,10.35
2018-03-22T14:37:16.319Z,9.90
2018-03-22T14:39:46.090Z,10.75
2018-03-22T14:42:15.329Z,10.68
2018-03-22T14:44:44.179Z,10.57
2018-03-22T14:47:12.916Z,9.55
2018-03-22T14:49:41.062Z,9.77
2018-03-22T14:52:10.102Z,9.43
2018-03-22T14:54:38.516Z,9.00
2018-03-22T14:57:06.668Z,8.57
2018-03-22T14:59:34.868Z,10.05
2018-03-22T15:02:08.458Z,10.48
2018-03-22T15:04:37.939Z,9.18
2018-03-22T15:07:06.217Z,8.35
2018-03-22T15:09:35.311Z,8.38
2018-03-22T15:12:03.483Z,10.18
2018-03-22T15:14:32.695Z,9.57
2018-03-22T15:17:01.028Z,9.38
2018-03-22T15:19:29.227Z,10.48
2018-03-22T15:21:57.401Z,10.15
2018-03-22T15:24:25.763Z,8.48
2018-03-22T15:26:53.920Z,8.90
2018-03-22T15:29:23.101Z,8.55
2018-03-22T15:31:51.389Z,7.65
2018-03-22T15:34:19.604Z,10.50
2018-03-22T15:36:48.529Z,11.00
2018-03-22T15:39:16.698Z,8.95
2018-03-22T15:41:44.863Z,9.63
2018-03-22T15:44:13.050Z,9.95
2018-03-22T15:46:41.844Z,9.07
2018-03-22T15:49:10.024Z,12.18
2018-03-22T15:51:44.036Z,12.40
2018-03-22T15:54:14.988Z,10.90
2018-03-22T15:56:45.954Z,13.60
2018-03-22T15:59:14.120Z,13.02
2018-03-22T16:01:42.408Z,13.60
2018-03-22T16:04:14.542Z,13.00
2018-03-22T16:06:44.362Z,11.02
2018-03-22T16:09:13.923Z,11.90
2018-03-22T16:11:42.713Z,13.25
2018-03-22T16:14:10.904Z,12.18
2018-03-22T16:16:39.597Z,14.30
2018-03-22T16:19:07.758Z,14.70
2018-03-22T16:21:36.290Z,11.48
2018-03-22T16:24:06.874Z,15.00
2018-03-22T16:26:35.092Z,14.30
2018-03-22T16:29:05.490Z,15.90
2018-03-22T16:31:34.903Z,13.65
2018-03-22T16:34:08.854Z,9.95
2018-03-22T16:36:37.907Z,16.17
2018-03-22T16:39:08.065Z,16.08
2018-03-22T16:41:37.466Z,17.05
2018-03-22T16:44:06.825Z,15.95
2018-03-22T16:46:36.267Z,17.27
2018-03-22T16:49:04.528Z,15.48
2018-03-22T16:51:36.009Z,15.45
2018-03-22T16:54:06.314Z,15.68
2018-03-22T16:56:35.966Z,16.48
2018-03-22T16:59:04.576Z,17.62
2018-03-22T17:01:35.024Z,17.42
2018-03-22T17:04:04.275Z,17.65
2018-03-22T17:06:32.837Z,16.73
2018-03-22T17:09:02.548Z,19.15
2018-03-22T17:11:32.242Z,18.20
2018-03-22T17:14:01.612Z,17.42
2018-03-22T17:16:30.579Z,18.70
2018-03-22T17:19:01.191Z,17.12
2018-03-22T17:21:30.874Z,14.80
2018-03-22T17:24:03.983Z,18.23
2018-03-22T17:26:32.838Z,16.20
2018-03-22T17:29:04.163Z,14.15
2018-03-22T17:31:34.344Z,16.37
2018-03-22T17:34:04.589Z,20.27
2018-03-22T17:36:34.022Z,17.65
2018-03-22T17:39:05.014Z,19.75
2018-03-22T17:41:33.543Z,19.35
2018-03-22T17:44:03.254Z,17.58
2018-03-22T17:46:33.443Z,18.50
2018-03-22T17:49:04.365Z,17.85
2018-03-22T17:51:32.536Z,18.37
2018-03-22T17:54:01.080Z,19.02
2018-03-22T17:56:29.288Z,20.58
2018-03-22T17:58:57.463Z,20.70
2018-03-22T18:01:26.786Z,18.77
2018-03-22T18:03:56.143Z,19.50
2018-03-22T18:06:25.515Z,20.17
2018-03-22T18:08:55.082Z,19.62
2018-03-22T18:11:23.597Z,20.50
2018-03-22T18:13:56.095Z,20.40
2018-03-22T18:16:25.865Z,20.27
2018-03-22T18:18:57.522Z,18.92
2018-03-22T18:21:25.673Z,18.50
2018-03-22T18:23:53.995Z,21.58
2018-03-22T18:26:23.485Z,20.33
2018-03-22T18:28:51.681Z,21.67
2018-03-22T18:31:22.297Z,20.08
2018-03-22T18:33:50.556Z,21.10
2018-03-22T18:36:19.982Z,20.12
2018-03-22T18:38:49.978Z,20.45
2018-03-22T18:41:22.479Z,20.25
2018-03-22T18:43:51.694Z,21.83
2018-03-22T18:46:20.625Z,23.58
2018-03-22T18:48:50.282Z,23.80
2018-03-22T18:51:19.649Z,22.87
2018-03-22T18:53:50.846Z,24.30
2018-03-22T18:56:20.943Z,25.15
2018-03-22T18:58:49.224Z,22.58
2018-03-22T19:01:19.846Z,19.37
2018-03-22T19:03:54.077Z,23.00
2018-03-22T19:06:23.134Z,24.73
2018-03-22T19:08:52.625Z,25.52
2018-03-22T19:11:21.704Z,21.40
2018-03-22T19:13:53.592Z,22.17
2018-03-22T19:16:22.182Z,20.37
2018-03-22T19:18:51.330Z,24.35
2018-03-22T19:21:21.902Z,23.85
2018-03-22T19:23:53.632Z,24.63
2018-03-22T19:26:25.747Z,24.00
2018-03-22T19:28:54.712Z,24.15
2018-03-22T19:31:23.270Z,24.08
2018-03-22T19:33:52.891Z,23.25
2018-03-22T19:36:21.210Z,24.73
2018-03-22T19:38:49.853Z,24.00
2018-03-22T19:41:18.442Z,24.75
2018-03-22T19:43:46.905Z,22.67
2018-03-22T19:46:15.633Z,22.67
2018-03-22T19:48:45.053Z,21.23
2018-03-22T19:51:13.744Z,23.02
2018-03-22T19:53:47.248Z,21.67
2018-03-22T19:56:16.343Z,23.85
2018-03-22T19:58:45.564Z,23.98
2018-03-22T20:01:13.750Z,25.92
2018-03-22T20:03:47.728Z,26.05
2018-03-22T20:06:16.794Z,24.30
2018-03-22T20:08:45.428Z,21.58
2018-03-22T20:11:14.893Z,25.60
2018-03-22T20:13:47.524Z,23.17
2018-03-22T20:16:16.254Z,25.60
2018-03-22T20:18:46.320Z,22.65
2018-03-22T20:21:16.673Z,23.38
2018-03-22T20:23:45.182Z,24.17
2018-03-22T20:26:16.535Z,25.92
2018-03-22T20:28:45.506Z,24.67
2018-03-22T20:33:52.045Z,24.55
2018-03-22T20:36:23.118Z,22.87
2018-03-22T20:38:53.027Z,23.87
2018-03-22T20:41:22.536Z,26.52
2018-03-22T20:43:51.620Z,22.40
2018-03-22T20:46:20.101Z,25.45
2018-03-22T20:48:48.965Z,22.80
2018-03-22T20:51:18.216Z,23.02
2018-03-22T20:53:47.921Z,22.92
2018-03-22T20:56:24.019Z,25.35
2018-03-22T20:58:53.046Z,22.67
2018-03-22T21:01:23.380Z,23.38
2018-03-22T21:03:55.059Z,24.85
2018-03-22T21:06:25.023Z,26.33
2018-03-22T21:09:01.404Z,25.27
2018-03-22T21:11:30.733Z,22.33
2018-03-22T21:14:00.860Z,24.60
2018-03-22T21:16:32.625Z,22.95
2018-03-22T21:19:02.974Z,25.02
2018-03-22T21:21:33.504Z,24.52
2018-03-22T21:24:06.791Z,26.70
2018-03-22T21:26:36.498Z,25.95
2018-03-22T21:29:08.581Z,25.90
2018-03-22T21:31:38.049Z,22.98
2018-03-22T21:34:14.893Z,26.37
2018-03-22T21:36:44.418Z,23.10
2018-03-22T21:39:17.881Z,23.67
2018-03-22T21:42:05.737Z,23.45
2018-03-22T21:44:33.936Z,23.33
2018-03-22T21:47:15.047Z,21.70
2018-03-22T21:49:43.241Z,21.83
2018-03-22T21:52:24.088Z,23.15
2018-03-22T21:54:52.251Z,23.08
2018-03-22T21:57:20.468Z,23.33
2018-03-22T21:59:49.638Z,22.83
2018-03-22T22:02:22.163Z,24.75
2018-03-22T22:04:55.563Z,22.15
2018-03-22T22:07:28.679Z,21.75
2018-03-22T22:09:57.718Z,22.30
2018-03-22T22:12:26.049Z,22.17
2018-03-22T22:14:54.919Z,22.95
2018-03-22T22:17:27.601Z,21.58
2018-03-22T22:19:58.442Z,22.20
2018-03-22T22:22:30.184Z,22.67
2018-03-22T22:24:59.187Z,25.30
2018-03-22T22:27:27.477Z,23.73
2018-03-22T22:29:55.796Z,24.85
2018-03-22T22:32:26.145Z,22.25
2018-03-22T22:34:55.180Z,24.12
2018-03-22T22:37:23.941Z,22.58
2018-03-22T22:39:52.143Z,21.45
2018-03-22T22:42:23.152Z,23.67
2018-03-22T22:44:51.692Z,22.13
2018-03-22T22:47:21.862Z,23.35
2018-03-22T22:49:50.049Z,21.80
2018-03-22T22:52:20.316Z,20.95
2018-03-22T22:54:48.498Z,18.48
2018-03-22T22:57:16.673Z,17.45
2018-03-22T22:59:47.122Z,17.85
2018-03-22T23:02:16.138Z,19.40
2018-03-22T23:04:46.124Z,19.95
2018-03-22T23:07:15.044Z,19.12
2018-03-22T23:09:43.225Z,21.75
2018-03-22T23:12:13.256Z,20.77
2018-03-22T23:14:41.426Z,21.92
2018-03-22T23:17:09.747Z,21.05
2018-03-22T23:19:38.770Z,20.85
2018-03-22T23:22:06.984Z,20.05
2018-03-22T23:24:35.142Z,18.30
2018-03-22T23:27:03.359Z,19.62
2018-03-22T23:29:31.962Z,19.55
2018-03-22T23:32:00.975Z,19.27
2018-03-22T23:34:31.530Z,20.23
2018-03-22T23:36:59.698Z,19.20
2018-03-22T23:39:28.757Z,19.83
2018-03-22T23:41:57.702Z,19.20
2018-03-22T23:44:25.873Z,17.50
2018-03-22T23:46:54.143Z,20.98
2018-03-22T23:49:22.328Z,18.70
2018-03-22T23:51:50.506Z,18.75
2018-03-22T23:54:18.956Z,18.20
2018-03-22T23:56:47.780Z,18.48
2018-03-22T23:59:15.954Z,16.37
